Terminal Aerodrome Forecast
Issued by NWS

Home | Current Version | Previous Version | Text Only | Print | Product List | Glossary On
Versions: 1 2 3 4 5 6 7 8 9 10 11 12 13 14 15 16 17 18 19 20 21
000
FTUS41 KGYX 200213 AAA
TAFPSM
TAF AMD
KPSM 200213Z 2002/2024 27004KT P6SM OVC035
     FM201400 VRB03KT P6SM SCT035 BKN250
     FM202000 14004KT P6SM SCT025=

USA.gov is the U.S. government's official web portal to all federal, state and local government web resources and services.